Time;durP1;ratioP1;P1;durP2;ratioP2;P2;SDS_P1;SDS_P2;PMS_P1;PMS_P2;Temp;Humidity;BMP_temperature;BMP_pressure;BME280_temperature;BME280_humidity;BME280_pressure;Samples;Min_cycle;Max_cycle;Signal;HPM_P1;HPM_P2
2021/03/04 00:06:42;;;;;;;74.2;54.9;;;;;;;3.72;86.98438;99134.99;;;;
2021/03/04 00:16:40;;;;;;;78.3;54.6;;;;;;;3.61;88.49902;99130.59;;;;
2021/03/04 00:26:38;;;;;;;61.3;49.4;;;;;;;3.53;88.54004;99113.2;;;;
2021/03/04 00:36:36;;;;;;;64.1;47.6;;;;;;;3.53;88.9248;99109.73;;;;
2021/03/04 00:46:34;;;;;;;53.9;42.9;;;;;;;3.42;88.53613;99097.34;;;;
2021/03/04 00:56:32;;;;;;;56.2;43.1;;;;;;;3.43;88.92871;99081.12;;;;
2021/03/04 01:06:30;;;;;;;59;41.8;;;;;;;3.43;88.08789;99062.47;;;;
2021/03/04 01:16:28;;;;;;;51;38.9;;;;;;;3.34;87.05078;99042.63;;;;
2021/03/04 01:26:26;;;;;;;43.8;33.8;;;;;;;3.12;86.01074;99027.73;;;;
2021/03/04 01:36:24;;;;;;;45.2;33.4;;;;;;;2.92;86.07031;99015.77;;;;
2021/03/04 01:46:22;;;;;;;41.4;32.8;;;;;;;2.85;86.28809;99004.48;;;;
2021/03/04 01:56:19;;;;;;;47.3;34.4;;;;;;;2.62;86.90625;98988.77;;;;
2021/03/04 02:06:17;;;;;;;48;34.8;;;;;;;2.55;87.37598;98988.13;;;;
2021/03/04 02:16:15;;;;;;;41.3;35.1;;;;;;;2.45;88.30469;98982.67;;;;
2021/03/04 02:26:13;;;;;;;46.6;31.1;;;;;;;2.29;88.70215;98975.55;;;;
2021/03/04 02:36:10;;;;;;;55.2;32.5;;;;;;;2.19;92.02051;98960.22;;;;
2021/03/04 02:46:08;;;;;;;49.2;29.3;;;;;;;2.11;92.55371;98944.7;;;;
2021/03/04 02:56:06;;;;;;;35.7;30.8;;;;;;;2;93.43262;98919.83;;;;
2021/03/04 03:06:04;;;;;;;48.6;33.4;;;;;;;1.96;93.99512;98920.55;;;;
2021/03/04 03:16:03;;;;;;;37.3;28.2;;;;;;;1.84;94.11328;98904.69;;;;
2021/03/04 03:25:59;;;;;;;46.6;34;;;;;;;1.73;95.37598;98887;;;;
2021/03/04 03:35:57;;;;;;;41.5;28.1;;;;;;;1.63;94.87891;98892.16;;;;
2021/03/04 03:45:54;;;;;;;47.5;33.3;;;;;;;1.54;95.49902;98882.97;;;;
2021/03/04 03:55:52;;;;;;;36.1;29.8;;;;;;;1.48;95.08789;98894.56;;;;
2021/03/04 04:05:50;;;;;;;37.3;30;;;;;;;1.51;95.38281;98873.64;;;;
2021/03/04 04:15:48;;;;;;;38.2;31.7;;;;;;;1.6;95.28027;98863.4;;;;
2021/03/04 04:25:45;;;;;;;35;26.8;;;;;;;1.81;95.49023;98845.91;;;;
2021/03/04 04:35:43;;;;;;;35.6;28.3;;;;;;;2.02;94.49316;98832.66;;;;
2021/03/04 04:45:41;;;;;;;33.9;26.2;;;;;;;2.03;93.87012;98828.95;;;;
2021/03/04 04:55:38;;;;;;;35.3;25.9;;;;;;;1.89;93.69336;98805.63;;;;
2021/03/04 05:05:36;;;;;;;28.7;23.8;;;;;;;2.01;93.69043;98783.2;;;;
2021/03/04 05:15:34;;;;;;;34.5;26.4;;;;;;;2.03;93.48242;98769.67;;;;
2021/03/04 05:25:32;;;;;;;35.4;28.9;;;;;;;1.95;92.99414;98768.25;;;;
2021/03/04 05:35:30;;;;;;;27.7;23.9;;;;;;;1.9;93.16992;98749.59;;;;
2021/03/04 05:45:27;;;;;;;40;29.6;;;;;;;2.06;93.23535;98749.76;;;;
2021/03/04 05:55:25;;;;;;;36;28.6;;;;;;;2.27;93.11719;98757.72;;;;
2021/03/04 06:05:23;;;;;;;42;32.2;;;;;;;2.48;92.58887;98750.76;;;;
2021/03/04 06:15:21;;;;;;;40.7;31.2;;;;;;;2.88;91.23145;98751.13;;;;
2021/03/04 06:25:19;;;;;;;50.8;38.1;;;;;;;3.16;89.57715;98773.2;;;;
2021/03/04 06:35:17;;;;;;;43.1;34.7;;;;;;;3.37;89.23438;98778.4;;;;
2021/03/04 06:45:15;;;;;;;47.8;39.5;;;;;;;3.45;88.86426;98787.78;;;;
2021/03/04 06:55:14;;;;;;;44.1;32.8;;;;;;;3.82;88.18848;98777.88;;;;
2021/03/04 07:05:10;;;;;;;42.4;33.5;;;;;;;4.27;86.51758;98766.59;;;;
2021/03/04 07:15:08;;;;;;;39.4;31.5;;;;;;;4.67;84.47852;98760.57;;;;
2021/03/04 07:25:07;;;;;;;35;31.3;;;;;;;5.22;81.86035;98764.33;;;;
2021/03/04 07:35:05;;;;;;;43;33.3;;;;;;;5.76;79.72363;98759.95;;;;
2021/03/04 07:45:13;;;;;;;44.1;31.8;;;;;;;6.22;78.41211;98752.6;;;;
2021/03/04 07:55:12;;;;;;;31.6;28.3;;;;;;;6.74;76.65137;98744;;;;
2021/03/04 08:04:59;;;;;;;39.6;29.4;;;;;;;7.32;74.6582;98733.38;;;;
2021/03/04 08:14:58;;;;;;;31.8;27.4;;;;;;;8.06;71.6748;98725.58;;;;
2021/03/04 08:24:56;;;;;;;34.5;28.4;;;;;;;8.35;69.67578;98714.77;;;;
2021/03/04 08:34:54;;;;;;;37.8;30.2;;;;;;;8.57;69.41992;98728.41;;;;
2021/03/04 08:44:53;;;;;;;54.3;32.9;;;;;;;8.84;69.12305;98694.7;;;;
2021/03/04 08:54:51;;;;;;;38;32.6;;;;;;;9.07;69.48828;98697.27;;;;
2021/03/04 09:04:50;;;;;;;49.4;36.6;;;;;;;9.48;68.85156;98691.16;;;;
2021/03/04 09:14:49;;;;;;;63.7;44.1;;;;;;;9.68;68.51367;98704.25;;;;
2021/03/04 09:24:48;;;;;;;52.5;39.8;;;;;;;9.74;68.2168;98686.91;;;;
2021/03/04 09:34:46;;;;;;;50.9;42.9;;;;;;;9.9;68.29883;98685.49;;;;
2021/03/04 09:44:45;;;;;;;48.1;38.5;;;;;;;10.03;67.4707;98673.13;;;;
2021/03/04 09:54:44;;;;;;;60.7;43.6;;;;;;;9.99;67.48828;98664.06;;;;
2021/03/04 10:04:43;;;;;;;48.9;41.7;;;;;;;10.1;68.3418;98658.13;;;;
2021/03/04 10:14:41;;;;;;;50.7;45.2;;;;;;;9.91;69.56445;98664.76;;;;
2021/03/04 10:24:40;;;;;;;60.7;45.4;;;;;;;10.19;69.12305;98652.08;;;;
2021/03/04 10:34:39;;;;;;;63.8;48.6;;;;;;;9.93;68.99219;98651.78;;;;
2021/03/04 10:44:38;;;;;;;65.9;46.8;;;;;;;10.14;68.94629;98639.51;;;;
2021/03/04 10:54:37;;;;;;;56.4;49;;;;;;;10.03;69.01953;98620.05;;;;
2021/03/04 11:04:35;;;;;;;53.1;45.6;;;;;;;10.27;68.80859;98625.23;;;;
2021/03/04 11:14:34;;;;;;;59.4;45;;;;;;;10.33;67.93652;98604.34;;;;
2021/03/04 11:24:33;;;;;;;51.7;42.4;;;;;;;10.51;67.48926;98598;;;;
2021/03/04 11:34:32;;;;;;;72.6;46.2;;;;;;;10.34;67.67773;98584.4;;;;
2021/03/04 11:44:30;;;;;;;50.8;41.2;;;;;;;10.49;67.46387;98567.84;;;;
2021/03/04 11:54:29;;;;;;;50.5;42.4;;;;;;;10.47;67.57422;98545.81;;;;
2021/03/04 12:04:28;;;;;;;46.3;41.2;;;;;;;10.32;67.09668;98532.71;;;;
2021/03/04 12:14:27;;;;;;;55.8;40.6;;;;;;;10.46;67.0166;98533.44;;;;
2021/03/04 12:24:26;;;;;;;47.1;37.9;;;;;;;10.23;67.19629;98523.78;;;;
2021/03/04 12:34:24;;;;;;;51.3;41.5;;;;;;;10.18;67.86816;98508.53;;;;
2021/03/04 12:44:23;;;;;;;53.2;43.4;;;;;;;9.96;68.625;98501.2;;;;
2021/03/04 12:54:22;;;;;;;56.8;42.1;;;;;;;10.01;68.85742;98489.53;;;;
2021/03/04 13:04:21;;;;;;;54.9;38.9;;;;;;;10.09;68.16016;98476.14;;;;
2021/03/04 13:14:20;;;;;;;49.1;39.4;;;;;;;10.06;67.16016;98471.38;;;;
2021/03/04 13:24:18;;;;;;;50.5;36.7;;;;;;;10.09;67.07324;98464.58;;;;
2021/03/04 13:34:17;;;;;;;37.7;33.3;;;;;;;10.32;67.11914;98457.28;;;;
2021/03/04 13:44:16;;;;;;;48.6;35.2;;;;;;;10.28;66.11816;98437.45;;;;
2021/03/04 13:54:15;;;;;;;42.3;33.2;;;;;;;10.2;66.20801;98448.99;;;;
2021/03/04 14:04:13;;;;;;;47.1;37.3;;;;;;;10.03;67.16699;98434.27;;;;
2021/03/04 14:14:12;;;;;;;57.4;39.8;;;;;;;10.09;67.61621;98413.41;;;;
2021/03/04 14:24:11;;;;;;;44.4;36.2;;;;;;;9.93;67.56836;98421.06;;;;
2021/03/04 14:34:10;;;;;;;51.5;38.8;;;;;;;9.74;68.79297;98411.59;;;;
2021/03/04 14:44:08;;;;;;;48.6;38.2;;;;;;;9.73;69.65918;98396.54;;;;
2021/03/04 14:54:09;;;;;;;53.7;39;;;;;;;9.62;70.70215;98382.53;;;;
2021/03/04 15:04:06;;;;;;;49.8;43.2;;;;;;;9.49;72.09082;98372.63;;;;
2021/03/04 15:14:04;;;;;;;49.9;40.3;;;;;;;9.34;73.30469;98362.22;;;;
2021/03/04 15:24:04;;;;;;;49.6;41.7;;;;;;;9.21;74.4873;98360.38;;;;
2021/03/04 15:34:04;;;;;;;62.6;44.6;;;;;;;9.06;75.83496;98351.55;;;;
2021/03/04 15:44:01;;;;;;;49.9;39.2;;;;;;;8.89;76.75;98359.46;;;;
2021/03/04 15:53:59;;;;;;;60;43.7;;;;;;;8.69;78.02734;98359.89;;;;
2021/03/04 16:03:58;;;;;;;50.4;41.6;;;;;;;8.49;79.69824;98352.26;;;;
2021/03/04 16:13:56;;;;;;;46.1;40;;;;;;;8.37;81.12305;98362.69;;;;
2021/03/04 16:23:55;;;;;;;54.2;43.2;;;;;;;8.21;82.99609;98361.36;;;;
2021/03/04 16:33:54;;;;;;;64.5;44.4;;;;;;;8.08;84.40723;98366.44;;;;
2021/03/04 16:43:52;;;;;;;57.9;43.5;;;;;;;8.09;85.20215;98361.84;;;;
2021/03/04 16:53:51;;;;;;;57.3;43.5;;;;;;;8.02;86.6084;98364.11;;;;
2021/03/04 17:03:50;;;;;;;53.9;47.8;;;;;;;7.97;87.71973;98362.34;;;;
2021/03/04 17:13:48;;;;;;;66.9;47.6;;;;;;;7.89;89.5791;98359.52;;;;
2021/03/04 17:23:48;;;;;;;63.8;50.6;;;;;;;7.82;90.85938;98367.16;;;;
2021/03/04 17:33:45;;;;;;;61.9;53.3;;;;;;;7.68;91.97852;98371.69;;;;
2021/03/04 17:43:44;;;;;;;68.2;59.1;;;;;;;7.58;93.05273;98362.73;;;;
2021/03/04 17:53:42;;;;;;;64.9;54.3;;;;;;;7.55;93.46875;98354.47;;;;
2021/03/04 18:03:41;;;;;;;78.4;59.2;;;;;;;7.45;94.48438;98338.55;;;;
2021/03/04 18:13:39;;;;;;;83.7;60.7;;;;;;;7.53;94.31152;98340.58;;;;
2021/03/04 18:23:38;;;;;;;72.1;54.1;;;;;;;7.54;94.5459;98323.38;;;;
2021/03/04 18:33:36;;;;;;;68.6;53.9;;;;;;;7.53;95.18164;98324.48;;;;
2021/03/04 18:43:35;;;;;;;75.4;64.2;;;;;;;7.49;96.90918;98326.16;;;;
2021/03/04 18:53:33;;;;;;;79.8;57.6;;;;;;;7.44;98.41113;98312.83;;;;
2021/03/04 19:03:32;;;;;;;76.2;62.1;;;;;;;7.29;99.93555;98311.18;;;;
2021/03/04 19:13:30;;;;;;;74.5;66.3;;;;;;;7.24;100;98305.91;;;;
2021/03/04 19:23:29;;;;;;;78.3;66.2;;;;;;;7.04;100;98309.72;;;;
2021/03/04 19:33:27;;;;;;;88.4;68.5;;;;;;;7.02;100;98311.07;;;;
2021/03/04 19:43:26;;;;;;;87.8;68.3;;;;;;;7.05;100;98299.77;;;;
2021/03/04 19:53:24;;;;;;;78.8;63.5;;;;;;;7.03;100;98294.72;;;;
2021/03/04 20:03:23;;;;;;;80.1;60.8;;;;;;;7.04;100;98296.31;;;;
2021/03/04 20:13:21;;;;;;;67.4;60;;;;;;;6.93;100;98302.11;;;;
2021/03/04 20:23:20;;;;;;;81.5;64.1;;;;;;;6.92;100;98295.95;;;;
2021/03/04 20:33:18;;;;;;;70.6;58.9;;;;;;;6.92;100;98301.3;;;;
2021/03/04 20:43:17;;;;;;;72;51.9;;;;;;;6.91;100;98288.98;;;;
2021/03/04 20:53:15;;;;;;;67.2;54.3;;;;;;;6.77;100;98298.83;;;;
2021/03/04 21:03:14;;;;;;;72.6;53.2;;;;;;;6.89;100;98291.17;;;;
2021/03/04 21:13:12;;;;;;;68.6;59.2;;;;;;;6.72;100;98285.53;;;;
2021/03/04 21:23:11;;;;;;;80;61.3;;;;;;;6.84;100;98279.72;;;;
2021/03/04 21:33:09;;;;;;;81;60.2;;;;;;;6.78;100;98270.98;;;;
2021/03/04 21:43:07;;;;;;;72.4;53.3;;;;;;;6.73;100;98279.09;;;;
2021/03/04 21:53:06;;;;;;;83.3;72.3;;;;;;;6.72;100;98274.82;;;;
2021/03/04 22:03:05;;;;;;;64.1;51.5;;;;;;;5.68;100;98297.19;;;;
2021/03/04 22:13:05;;;;;;;81.9;55.2;;;;;;;4.93;100;98297.53;;;;
2021/03/04 22:23:01;;;;;;;69.3;52.4;;;;;;;4.84;100;98323.23;;;;
2021/03/04 22:32:59;;;;;;;71.1;55.1;;;;;;;4.87;100;98333.36;;;;
2021/03/04 22:42:57;;;;;;;73.3;53;;;;;;;4.7;100;98330.27;;;;
2021/03/04 22:52:56;;;;;;;74.2;55.8;;;;;;;4.56;100;98338.08;;;;
2021/03/04 23:02:54;;;;;;;70;52.4;;;;;;;4.58;100;98345.02;;;;
2021/03/04 23:12:52;;;;;;;87.1;63.5;;;;;;;4.46;100;98340.79;;;;
2021/03/04 23:22:50;;;;;;;71.6;57.4;;;;;;;4.46;100;98339.98;;;;
2021/03/04 23:32:48;;;;;;;84;62.6;;;;;;;4.36;100;98356.84;;;;
2021/03/04 23:42:46;;;;;;;79.8;61.4;;;;;;;4.17;100;98376.36;;;;
2021/03/04 23:52:44;;;;;;;67.5;45.7;;;;;;;3.67;100;98380.72;;;;
